createdAt,value
2022-08-14T00:01:18.053Z,18.69
2022-08-14T00:03:57.003Z,18.75
2022-08-14T00:06:29.399Z,18.74
2022-08-14T00:09:04.879Z,18.77
2022-08-14T00:11:38.695Z,18.78
2022-08-14T00:14:18.316Z,18.78
2022-08-14T00:16:52.053Z,18.75
2022-08-14T00:19:28.118Z,18.74
2022-08-14T00:22:01.470Z,18.73
2022-08-14T00:24:35.642Z,18.71
2022-08-14T00:27:09.462Z,18.70
2022-08-14T00:29:43.094Z,18.69
2022-08-14T00:32:56.074Z,18.69
2022-08-14T00:35:12.685Z,18.68
2022-08-14T00:37:47.086Z,18.67
2022-08-14T00:40:33.088Z,18.67
2022-08-14T00:43:08.904Z,18.67
2022-08-14T00:45:41.607Z,18.65
2022-08-14T00:48:14.610Z,18.65
2022-08-14T00:51:11.318Z,18.64
2022-08-14T00:53:43.833Z,18.60
2022-08-14T00:56:18.524Z,18.58
2022-08-14T00:58:51.155Z,18.56
2022-08-14T01:01:24.527Z,18.56
2022-08-14T01:04:00.182Z,18.57
2022-08-14T01:06:36.142Z,18.55
2022-08-14T01:09:09.354Z,18.53
2022-08-14T01:11:45.118Z,18.54
2022-08-14T01:14:31.278Z,18.55
2022-08-14T01:17:04.316Z,18.59
2022-08-14T01:19:55.267Z,18.59
2022-08-14T01:22:29.534Z,18.62
2022-08-14T01:25:01.794Z,18.66
2022-08-14T01:27:52.500Z,18.68
2022-08-14T01:30:36.564Z,18.72
2022-08-14T01:33:14.610Z,18.77
2022-08-14T01:36:05.103Z,18.86
2022-08-14T01:38:44.272Z,18.87
2022-08-14T01:41:29.745Z,18.89
2022-08-14T01:44:06.290Z,18.89
2022-08-14T01:47:01.004Z,18.80
2022-08-14T01:49:35.240Z,18.76
2022-08-14T01:52:09.051Z,18.75
2022-08-14T01:55:00.271Z,18.77
2022-08-14T01:57:49.410Z,18.81
2022-08-14T02:00:27.777Z,18.80
2022-08-14T02:03:00.290Z,18.80
2022-08-14T02:05:35.674Z,18.79
2022-08-14T02:08:11.606Z,18.72
2022-08-14T02:11:11.168Z,18.66
2022-08-14T02:13:44.310Z,18.63
2022-08-14T02:16:23.038Z,18.61
2022-08-14T02:18:58.080Z,18.56
2022-08-14T02:21:43.673Z,18.54
2022-08-14T02:24:39.523Z,18.49
2022-08-14T02:28:24.615Z,18.42
2022-08-14T02:30:11.214Z,18.37
2022-08-14T02:32:46.239Z,18.37
2022-08-14T02:35:22.024Z,18.38
2022-08-14T02:38:01.034Z,18.41
2022-08-14T02:40:38.059Z,18.43
2022-08-14T02:43:10.468Z,18.40
2022-08-14T02:45:44.652Z,18.40
2022-08-14T02:49:03.009Z,18.40
2022-08-14T02:51:13.888Z,18.41
2022-08-14T02:53:48.111Z,18.43
2022-08-14T02:56:30.098Z,18.46
2022-08-14T02:59:21.181Z,18.48
2022-08-14T03:01:56.183Z,18.50
2022-08-14T03:04:30.297Z,18.52
2022-08-14T03:07:07.499Z,18.51
2022-08-14T03:10:26.129Z,18.48
2022-08-14T03:12:34.391Z,18.45
2022-08-14T03:15:16.215Z,18.45
2022-08-14T03:17:57.847Z,18.43
2022-08-14T03:20:35.095Z,18.43
2022-08-14T03:23:07.876Z,18.47
2022-08-14T03:25:41.327Z,18.53
2022-08-14T03:28:14.886Z,18.55
2022-08-14T03:31:08.451Z,18.59
2022-08-14T03:33:51.718Z,18.59
2022-08-14T03:38:20.875Z,18.61
2022-08-14T03:39:24.124Z,18.61
2022-08-14T03:41:59.983Z,18.60
2022-08-14T03:45:27.291Z,18.58
2022-08-14T03:47:46.230Z,18.57
2022-08-14T03:50:31.073Z,18.56
2022-08-14T03:53:06.575Z,18.55
2022-08-14T03:55:40.893Z,18.54
2022-08-14T03:58:23.521Z,18.54
2022-08-14T04:01:07.987Z,18.51
2022-08-14T04:03:41.024Z,18.47
2022-08-14T04:06:21.047Z,18.43
2022-08-14T04:08:54.426Z,18.38
2022-08-14T04:11:30.929Z,18.37
2022-08-14T04:14:03.551Z,18.36
2022-08-14T04:16:38.312Z,18.36
2022-08-14T04:19:13.083Z,18.35
2022-08-14T04:22:01.760Z,18.36
2022-08-14T04:24:39.251Z,18.39
2022-08-14T04:27:17.084Z,18.37
2022-08-14T04:29:49.628Z,18.37
2022-08-14T04:32:59.019Z,18.37
2022-08-14T04:35:23.658Z,18.37
2022-08-14T04:38:36.506Z,18.37
2022-08-14T04:41:30.280Z,18.38
2022-08-14T04:44:05.117Z,18.38
2022-08-14T04:46:55.856Z,18.42
2022-08-14T04:49:30.523Z,18.49
2022-08-14T04:52:04.203Z,18.53
2022-08-14T04:54:49.547Z,18.54
2022-08-14T04:57:24.436Z,18.54
2022-08-14T04:59:57.271Z,18.56
2022-08-14T05:02:30.536Z,18.61
2022-08-14T05:05:08.951Z,18.64
2022-08-14T05:07:53.971Z,18.62
2022-08-14T05:10:34.867Z,18.61
2022-08-14T05:13:13.282Z,18.64
2022-08-14T05:15:48.125Z,18.62
2022-08-14T05:19:17.146Z,18.66
2022-08-14T05:22:00.484Z,18.69
2022-08-14T05:24:17.576Z,18.75
2022-08-14T05:26:51.583Z,18.79
2022-08-14T05:29:26.101Z,18.82
2022-08-14T05:32:03.596Z,18.86
2022-08-14T05:34:36.278Z,18.95
2022-08-14T05:37:10.417Z,19.02
2022-08-14T05:39:43.878Z,19.09
2022-08-14T05:42:22.071Z,19.14
2022-08-14T05:45:04.154Z,19.22
2022-08-14T05:47:43.142Z,19.27
2022-08-14T05:50:18.709Z,19.30
2022-08-14T05:52:56.179Z,19.30
2022-08-14T05:55:28.946Z,19.31
2022-08-14T05:58:04.221Z,19.33
2022-08-14T06:00:39.490Z,19.35
2022-08-14T06:03:15.003Z,19.39
2022-08-14T06:05:52.006Z,19.42
2022-08-14T06:08:36.013Z,19.47
2022-08-14T06:11:14.841Z,19.52
2022-08-14T06:14:00.814Z,19.56
2022-08-14T06:16:37.499Z,19.60
2022-08-14T06:19:11.273Z,19.66
2022-08-14T06:21:55.829Z,19.72
2022-08-14T06:24:34.852Z,19.83
2022-08-14T06:27:10.868Z,19.98
2022-08-14T06:29:43.764Z,20.15
2022-08-14T06:32:36.801Z,20.22
2022-08-14T06:35:13.671Z,20.33
2022-08-14T06:37:48.502Z,20.41
2022-08-14T06:40:27.665Z,20.48
2022-08-14T06:43:03.639Z,20.53
2022-08-14T06:45:38.885Z,20.68
2022-08-14T06:48:22.639Z,20.71
2022-08-14T06:50:58.150Z,20.81
2022-08-14T06:53:30.405Z,20.94
2022-08-14T06:56:03.678Z,20.90
2022-08-14T06:58:35.664Z,20.84
2022-08-14T07:01:29.322Z,20.82
2022-08-14T07:04:22.967Z,20.74
2022-08-14T07:06:59.108Z,20.67
2022-08-14T07:09:40.655Z,20.72
2022-08-14T07:12:52.243Z,20.74
2022-08-14T07:15:12.221Z,20.75
2022-08-14T07:17:52.295Z,20.65
2022-08-14T07:20:31.381Z,20.65
2022-08-14T07:23:09.191Z,20.70
2022-08-14T07:25:46.555Z,20.64
2022-08-14T07:28:24.589Z,20.56
2022-08-14T07:31:04.292Z,20.52
2022-08-14T07:33:41.977Z,20.47
2022-08-14T07:36:27.715Z,20.43
2022-08-14T07:39:12.288Z,20.39
2022-08-14T07:41:46.368Z,20.36
2022-08-14T07:44:28.780Z,20.39
2022-08-14T07:47:07.062Z,20.42
2022-08-14T07:49:39.932Z,20.42
2022-08-14T07:52:14.597Z,20.36
2022-08-14T07:54:55.645Z,20.37
2022-08-14T07:57:28.843Z,20.34
2022-08-14T08:00:03.181Z,20.34
2022-08-14T08:02:36.165Z,20.32
2022-08-14T08:05:15.625Z,20.28
2022-08-14T08:07:49.964Z,20.27
2022-08-14T08:11:01.492Z,20.36
2022-08-14T08:13:29.192Z,20.48
2022-08-14T08:16:04.032Z,20.59
2022-08-14T08:18:39.536Z,20.69
2022-08-14T08:21:17.889Z,20.76
2022-08-14T08:23:51.985Z,20.81
2022-08-14T08:26:23.987Z,20.95
2022-08-14T08:29:01.174Z,21.04
2022-08-14T08:31:35.155Z,21.08
2022-08-14T08:34:14.074Z,21.09
2022-08-14T08:36:50.850Z,21.11
2022-08-14T08:39:23.276Z,21.11
2022-08-14T08:41:56.770Z,21.07
2022-08-14T08:44:34.227Z,21.12
2022-08-14T08:47:10.183Z,21.21
2022-08-14T08:49:52.614Z,21.33
2022-08-14T08:52:36.230Z,21.44
2022-08-14T08:55:12.893Z,21.46
2022-08-14T08:57:44.925Z,21.50
2022-08-14T09:00:24.306Z,21.58
2022-08-14T09:03:01.963Z,21.66
2022-08-14T09:05:36.026Z,21.66
2022-08-14T09:08:30.700Z,21.75
2022-08-14T09:11:19.425Z,21.84
2022-08-14T09:13:55.519Z,22.08
2022-08-14T09:16:29.705Z,22.37
2022-08-14T09:19:02.004Z,22.76
2022-08-14T09:21:34.859Z,23.04
2022-08-14T09:24:28.314Z,23.27
2022-08-14T09:27:01.604Z,23.51
2022-08-14T09:29:34.406Z,23.70
2022-08-14T09:32:58.326Z,23.79
2022-08-14T09:35:09.724Z,23.89
2022-08-14T09:37:49.860Z,23.89
2022-08-14T09:40:38.941Z,23.90
2022-08-14T09:43:30.331Z,24.08
2022-08-14T09:46:07.867Z,24.22
2022-08-14T09:48:41.378Z,24.30
2022-08-14T09:51:26.697Z,24.27
2022-08-14T09:54:18.741Z,24.39
2022-08-14T09:56:59.447Z,24.49
2022-08-14T09:59:50.264Z,24.56
2022-08-14T10:02:27.816Z,24.67
2022-08-14T10:05:11.105Z,24.68
2022-08-14T10:07:53.683Z,24.54
2022-08-14T10:10:35.053Z,24.26
2022-08-14T10:13:21.458Z,23.97
2022-08-14T10:16:03.112Z,23.70
2022-08-14T10:18:35.464Z,23.47
2022-08-14T10:21:18.438Z,23.30
2022-08-14T10:23:52.581Z,23.18
2022-08-14T10:26:28.367Z,23.11
2022-08-14T10:29:20.179Z,23.16
2022-08-14T10:32:01.622Z,23.41
2022-08-14T10:34:38.661Z,23.67
2022-08-14T10:37:17.144Z,23.98
2022-08-14T10:40:10.594Z,24.25
2022-08-14T10:42:57.859Z,24.60
2022-08-14T10:45:35.847Z,24.86
2022-08-14T10:48:34.483Z,25.06
2022-08-14T10:51:11.748Z,25.22
2022-08-14T10:53:44.756Z,25.34
2022-08-14T10:56:21.809Z,25.51
2022-08-14T10:59:05.749Z,25.73
2022-08-14T11:01:41.268Z,25.91
2022-08-14T11:04:30.806Z,26.14
2022-08-14T11:07:05.878Z,26.44
2022-08-14T11:09:41.841Z,26.55
2022-08-14T11:12:33.704Z,26.61
2022-08-14T11:15:12.121Z,26.64
2022-08-14T11:17:48.839Z,26.69
2022-08-14T11:20:24.032Z,26.65
2022-08-14T11:23:00.884Z,26.66
2022-08-14T11:25:43.316Z,26.73
2022-08-14T11:28:18.990Z,26.83
2022-08-14T11:30:54.696Z,26.91
2022-08-14T11:33:31.340Z,27.13
2022-08-14T11:36:18.306Z,27.39
2022-08-14T11:38:53.860Z,27.43
2022-08-14T11:41:27.346Z,27.51
2022-08-14T11:44:00.592Z,27.60
2022-08-14T11:46:37.372Z,27.76
2022-08-14T11:49:13.895Z,27.77
2022-08-14T11:51:58.029Z,27.77
2022-08-14T11:54:36.398Z,27.67
2022-08-14T11:57:18.740Z,27.57
2022-08-14T11:59:51.825Z,27.59
2022-08-14T12:03:01.574Z,27.67
2022-08-14T12:05:32.810Z,27.87
2022-08-14T12:08:11.126Z,28.10
2022-08-14T12:10:46.671Z,28.26
2022-08-14T12:13:22.988Z,28.45
2022-08-14T12:16:06.489Z,28.59
2022-08-14T12:18:45.517Z,28.84
2022-08-14T12:21:20.273Z,29.03
2022-08-14T12:24:04.451Z,29.16
2022-08-14T12:26:40.868Z,29.30
2022-08-14T12:29:16.978Z,29.67
2022-08-14T12:31:51.544Z,29.93
2022-08-14T12:34:25.360Z,30.28
2022-08-14T12:37:09.078Z,30.65
2022-08-14T12:39:41.918Z,30.78
2022-08-14T12:42:27.165Z,30.70
2022-08-14T12:45:17.212Z,30.28
2022-08-14T12:47:51.489Z,29.80
2022-08-14T12:50:23.666Z,29.34
2022-08-14T12:53:13.888Z,29.24
2022-08-14T12:56:21.883Z,29.20
2022-08-14T12:58:52.358Z,29.35
2022-08-14T13:01:28.128Z,29.31
2022-08-14T13:04:13.858Z,29.27
2022-08-14T13:06:51.506Z,29.46
2022-08-14T13:09:35.726Z,29.75
2022-08-14T13:12:32.088Z,29.96
2022-08-14T13:15:08.877Z,30.29
2022-08-14T13:17:48.132Z,30.44
2022-08-14T13:20:26.760Z,30.79
2022-08-14T13:23:03.080Z,31.17
2022-08-14T13:25:37.955Z,31.49
2022-08-14T13:28:10.914Z,31.37
2022-08-14T13:30:47.103Z,31.17
2022-08-14T13:33:21.701Z,30.94
2022-08-14T13:35:55.855Z,30.49
2022-08-14T13:38:29.839Z,29.94
2022-08-14T13:41:02.179Z,29.55
2022-08-14T13:43:49.210Z,29.20
2022-08-14T13:46:31.090Z,29.18
2022-08-14T13:49:07.923Z,29.54
2022-08-14T13:51:43.703Z,30.10
2022-08-14T13:54:22.717Z,30.61
2022-08-14T13:56:55.664Z,30.87
2022-08-14T13:59:38.124Z,31.21
2022-08-14T14:02:11.109Z,31.57
2022-08-14T14:05:04.461Z,31.82
2022-08-14T14:07:39.401Z,31.71
2022-08-14T14:10:19.055Z,31.35
2022-08-14T14:13:00.944Z,30.84
2022-08-14T14:15:58.525Z,30.14
2022-08-14T14:18:34.761Z,29.71
2022-08-14T14:21:09.119Z,29.49
2022-08-14T14:23:42.965Z,29.53
2022-08-14T14:26:23.198Z,29.85
2022-08-14T14:28:58.375Z,30.14
2022-08-14T14:31:34.053Z,30.26
2022-08-14T14:34:29.199Z,30.17
2022-08-14T14:37:04.887Z,30.12
2022-08-14T14:40:54.602Z,30.58
2022-08-14T14:42:35.466Z,31.19
2022-08-14T14:45:15.430Z,31.57
2022-08-14T14:47:51.747Z,31.93
2022-08-14T14:50:32.963Z,32.27
2022-08-14T14:53:13.305Z,32.56
2022-08-14T14:56:47.979Z,33.00
2022-08-14T14:58:40.142Z,33.31
2022-08-14T15:01:15.849Z,33.14
2022-08-14T15:03:48.278Z,32.92
2022-08-14T15:06:30.266Z,32.85
2022-08-14T15:09:08.923Z,32.88
2022-08-14T15:11:42.177Z,32.71
2022-08-14T15:14:54.921Z,32.37
2022-08-14T15:17:10.848Z,31.96
2022-08-14T15:19:56.264Z,31.39
2022-08-14T15:22:32.253Z,30.96
2022-08-14T15:25:06.631Z,30.48
2022-08-14T15:27:44.319Z,30.01
2022-08-14T15:30:24.213Z,29.65
2022-08-14T15:33:07.809Z,29.18
2022-08-14T15:35:44.947Z,28.82
2022-08-14T15:38:19.382Z,28.52
2022-08-14T15:40:56.197Z,28.16
2022-08-14T15:43:35.003Z,27.93
2022-08-14T15:46:25.316Z,27.74
2022-08-14T15:49:08.960Z,27.57
2022-08-14T15:51:42.290Z,27.55
2022-08-14T15:54:17.241Z,27.52
2022-08-14T15:56:59.327Z,27.87
2022-08-14T15:59:54.054Z,28.46
2022-08-14T16:02:28.865Z,29.22
2022-08-14T16:05:01.748Z,29.81
2022-08-14T16:07:34.525Z,30.36
2022-08-14T16:10:29.094Z,30.74
2022-08-14T16:13:03.571Z,30.82
2022-08-14T16:15:36.297Z,30.61
2022-08-14T16:21:10.785Z,29.95
2022-08-14T16:23:45.376Z,29.58
2022-08-14T16:26:22.472Z,29.15
2022-08-14T16:29:05.012Z,28.65
2022-08-14T16:31:38.768Z,28.31
2022-08-14T16:34:43.911Z,28.08
2022-08-14T16:37:06.942Z,27.79
2022-08-14T16:39:41.894Z,27.51
2022-08-14T16:40:23.740Z,30.31
2022-08-14T16:42:39.406Z,27.38
2022-08-14T16:45:10.553Z,27.30
2022-08-14T16:47:43.287Z,27.13
2022-08-14T16:50:40.057Z,27.02
2022-08-14T16:53:17.852Z,26.89
2022-08-14T16:55:55.600Z,26.75
2022-08-14T16:58:30.193Z,26.68
2022-08-14T17:01:24.881Z,26.54
2022-08-14T17:04:06.420Z,26.43
2022-08-14T17:06:49.698Z,26.34
2022-08-14T17:09:43.590Z,26.19
2022-08-14T17:12:28.659Z,26.03
2022-08-14T17:15:09.825Z,25.99
2022-08-14T17:17:49.970Z,25.96
2022-08-14T17:20:53.476Z,25.84
2022-08-14T17:23:29.802Z,25.71
2022-08-14T17:26:05.632Z,25.57
2022-08-14T17:28:52.582Z,25.44
2022-08-14T17:31:59.093Z,25.31
2022-08-14T17:34:26.846Z,25.21
2022-08-14T17:37:03.075Z,25.10
2022-08-14T17:39:40.011Z,24.98
2022-08-14T17:42:13.685Z,24.89
2022-08-14T17:44:46.298Z,24.80
2022-08-14T17:47:20.316Z,24.73
2022-08-14T17:49:55.697Z,24.64
2022-08-14T17:52:35.809Z,24.58
2022-08-14T17:56:01.815Z,24.49
2022-08-14T17:58:20.801Z,24.40
2022-08-14T18:00:57.785Z,24.30
2022-08-14T18:03:50.058Z,24.23
2022-08-14T18:06:40.109Z,24.14
2022-08-14T18:09:25.958Z,24.04
2022-08-14T18:12:03.734Z,23.93
2022-08-14T18:14:49.001Z,23.87
2022-08-14T18:17:26.585Z,23.83
2022-08-14T18:20:01.470Z,23.78
2022-08-14T18:22:49.672Z,23.74
2022-08-14T18:25:22.775Z,23.70
2022-08-14T18:27:56.987Z,23.63
2022-08-14T18:30:40.165Z,23.56
2022-08-14T18:33:22.137Z,23.52
2022-08-14T18:35:58.616Z,23.46
2022-08-14T18:38:55.426Z,23.41
2022-08-14T18:41:36.412Z,23.36
2022-08-14T18:44:11.453Z,23.32
2022-08-14T18:47:20.185Z,23.29
2022-08-14T18:50:26.056Z,23.24
2022-08-14T18:53:10.696Z,23.18
2022-08-14T18:55:54.593Z,23.11
2022-08-14T18:58:49.146Z,23.05
2022-08-14T19:01:33.781Z,22.99
2022-08-14T19:04:08.500Z,22.95
2022-08-14T19:06:56.401Z,22.91
2022-08-14T19:10:00.707Z,22.88
2022-08-14T19:13:00.772Z,22.84
2022-08-14T19:15:36.329Z,22.76
2022-08-14T19:18:27.945Z,22.71
2022-08-14T19:21:13.310Z,22.64
2022-08-14T19:24:27.354Z,22.57
2022-08-14T19:27:23.875Z,22.48
2022-08-14T19:30:24.826Z,22.40
2022-08-14T19:33:03.714Z,22.33
2022-08-14T19:35:59.655Z,22.26
2022-08-14T19:39:07.371Z,22.21
2022-08-14T19:41:51.903Z,22.14
2022-08-14T19:44:31.769Z,22.09
2022-08-14T19:47:09.490Z,22.04
2022-08-14T19:50:08.539Z,21.98
2022-08-14T19:52:40.186Z,21.93
2022-08-14T19:55:20.409Z,21.90
2022-08-14T19:58:07.273Z,21.85
2022-08-14T20:00:52.689Z,21.79
2022-08-14T20:03:26.176Z,21.76
2022-08-14T20:06:19.172Z,21.72
2022-08-14T20:11:11.245Z,21.69
2022-08-14T20:12:04.648Z,21.66
2022-08-14T20:14:41.411Z,21.63
2022-08-14T20:17:28.093Z,21.59
2022-08-14T20:20:01.292Z,21.54
2022-08-14T20:22:39.537Z,21.50
2022-08-14T20:25:16.526Z,21.44
2022-08-14T20:27:59.287Z,21.39
2022-08-14T20:30:35.405Z,21.33
2022-08-14T20:33:11.811Z,21.27
2022-08-14T20:35:50.324Z,21.21
2022-08-14T20:38:30.604Z,21.16
2022-08-14T20:41:09.425Z,21.10
2022-08-14T20:44:06.741Z,21.05
2022-08-14T20:46:42.387Z,21.02
2022-08-14T20:49:18.592Z,20.97
2022-08-14T20:52:04.956Z,20.94
2022-08-14T20:54:51.378Z,20.90
2022-08-14T20:57:25.717Z,20.87
2022-08-14T21:00:52.642Z,20.82
2022-08-14T21:03:37.632Z,20.78
2022-08-14T21:07:23.336Z,20.72
2022-08-14T21:10:03.498Z,20.65
2022-08-14T21:12:33.631Z,20.59
2022-08-14T21:15:13.921Z,20.53
2022-08-14T21:17:47.878Z,20.48
2022-08-14T21:20:26.647Z,20.45
2022-08-14T21:23:01.822Z,20.40
2022-08-14T21:25:35.560Z,20.36
2022-08-14T21:28:29.296Z,20.30
2022-08-14T21:31:04.049Z,20.26
2022-08-14T21:33:43.042Z,20.23
2022-08-14T21:36:21.818Z,20.21
2022-08-14T21:38:55.771Z,20.18
2022-08-14T21:41:42.896Z,20.16
2022-08-14T21:44:24.170Z,20.15
2022-08-14T21:47:17.348Z,20.15
2022-08-14T21:49:56.415Z,20.16
2022-08-14T21:52:50.350Z,20.18
2022-08-14T21:55:23.663Z,20.22
2022-08-14T21:58:51.262Z,20.26
2022-08-14T22:00:49.675Z,20.32
2022-08-14T22:03:24.506Z,20.38
2022-08-14T22:05:57.960Z,20.40
2022-08-14T22:08:30.743Z,20.41
2022-08-14T22:11:03.902Z,20.43
2022-08-14T22:13:37.423Z,20.43
2022-08-14T22:17:00.182Z,20.43
2022-08-14T22:19:17.079Z,20.43
2022-08-14T22:21:52.413Z,20.44
2022-08-14T22:24:37.747Z,20.46
2022-08-14T22:27:11.494Z,20.46
2022-08-14T22:29:44.164Z,20.44
2022-08-14T22:32:19.685Z,20.43
2022-08-14T22:34:58.953Z,20.41
2022-08-14T22:37:32.658Z,20.39
2022-08-14T22:40:17.105Z,20.36
2022-08-14T22:43:08.060Z,20.33
2022-08-14T22:45:42.444Z,20.32
2022-08-14T22:48:29.404Z,20.29
2022-08-14T22:51:04.023Z,20.26
2022-08-14T22:53:35.882Z,20.24
2022-08-14T22:56:20.161Z,20.21
2022-08-14T22:58:54.770Z,20.19
2022-08-14T23:01:55.502Z,20.18
2022-08-14T23:04:35.119Z,20.17
2022-08-14T23:07:22.994Z,20.15
2022-08-14T23:10:32.543Z,20.15
2022-08-14T23:12:54.715Z,20.17
2022-08-14T23:15:30.213Z,20.18
2022-08-14T23:18:03.888Z,20.17
2022-08-14T23:20:39.562Z,20.16
2022-08-14T23:23:22.681Z,20.16
2022-08-14T23:26:47.190Z,20.18
2022-08-14T23:28:57.206Z,20.17
2022-08-14T23:31:36.052Z,20.17
2022-08-14T23:34:10.591Z,20.20
2022-08-14T23:36:54.601Z,20.25
2022-08-14T23:39:31.359Z,20.27
2022-08-14T23:42:06.296Z,20.27
2022-08-14T23:44:45.754Z,20.24
2022-08-14T23:47:26.631Z,20.20
2022-08-14T23:50:04.080Z,20.18
2022-08-14T23:52:51.094Z,20.13
2022-08-14T23:55:36.402Z,20.07
2022-08-14T23:58:29.114Z,20.04
